Time;durP1;ratioP1;P1;durP2;ratioP2;P2;SDS_P1;SDS_P2;PMS_P1;PMS_P2;Temp;Humidity;BMP_temperature;BMP_pressure;BME280_temperature;BME280_humidity;BME280_pressure;Samples;Min_cycle;Max_cycle;Signal;HPM_P1;HPM_P2
2022/04/04 00:01:07;;;;;;;11.35;7.53;;;1.20;99.90;;;;;;5032494;28;20087;-68
2022/04/04 00:03:33;;;;;;;11.05;7.68;;;1.20;99.90;;;;;;5032582;28;20045;-68
2022/04/04 00:05:59;;;;;;;10.88;7.50;;;1.20;99.90;;;;;;5032590;28;20573;-68
2022/04/04 00:08:25;;;;;;;10.90;8.00;;;1.30;99.90;;;;;;5032729;28;20120;-68
2022/04/04 00:10:50;;;;;;;10.13;7.43;;;1.20;99.90;;;;;;5032419;28;20111;-68
2022/04/04 00:13:16;;;;;;;11.18;8.10;;;1.20;99.90;;;;;;5032357;28;20140;-68
2022/04/04 00:15:42;;;;;;;11.13;7.65;;;1.20;99.90;;;;;;5032461;28;20084;-68
2022/04/04 00:18:10;;;;;;;9.18;7.22;;;1.20;99.90;;;;;;5032331;28;20521;-68
2022/04/04 00:20:36;;;;;;;12.55;8.63;;;1.20;99.90;;;;;;5032467;28;20128;-68
2022/04/04 00:23:03;;;;;;;10.60;8.07;;;1.20;99.90;;;;;;5032388;28;20042;-68
2022/04/04 00:25:29;;;;;;;10.43;8.00;;;1.20;99.90;;;;;;5034484;28;20117;-68
2022/04/04 00:27:55;;;;;;;11.43;8.00;;;1.20;99.90;;;;;;5036128;28;20124;-68
2022/04/04 00:30:21;;;;;;;10.85;7.97;;;1.20;99.90;;;;;;5036305;28;20509;-68
2022/04/04 00:32:46;;;;;;;12.75;8.68;;;1.20;99.90;;;;;;5036209;28;20124;-68
2022/04/04 00:35:12;;;;;;;8.98;7.35;;;1.30;99.90;;;;;;5036235;28;20064;-68
2022/04/04 00:37:38;;;;;;;12.20;7.90;;;1.20;99.90;;;;;;5038257;28;20046;-68
2022/04/04 00:40:06;;;;;;;11.32;7.75;;;1.30;99.90;;;;;;5035674;28;20033;-68
2022/04/04 00:42:32;;;;;;;11.70;8.60;;;1.20;99.90;;;;;;5035975;28;20045;-68
2022/04/04 00:44:58;;;;;;;12.30;7.80;;;1.20;99.90;;;;;;5035900;28;20041;-68
2022/04/04 00:47:23;;;;;;;11.63;9.30;;;1.20;99.90;;;;;;5036013;28;20044;-68
2022/04/04 00:49:49;;;;;;;12.57;9.07;;;1.30;99.90;;;;;;5052033;28;20049;-68
2022/04/04 00:52:16;;;;;;;12.68;8.82;;;1.30;99.90;;;;;;5055824;28;20404;-68
2022/04/04 00:54:42;;;;;;;9.65;7.70;;;1.30;99.90;;;;;;5055603;28;20053;-68
2022/04/04 00:57:08;;;;;;;10.65;8.10;;;1.20;99.90;;;;;;5055627;28;20041;-68
2022/04/04 00:59:34;;;;;;;10.88;8.50;;;1.20;99.90;;;;;;5055537;28;20039;-68
2022/04/04 01:02:00;;;;;;;13.38;8.30;;;1.30;99.90;;;;;;5055352;28;20045;-68
2022/04/04 01:04:26;;;;;;;11.50;8.30;;;1.20;99.90;;;;;;5037053;28;20033;-68
2022/04/04 01:06:52;;;;;;;12.27;8.50;;;1.20;99.90;;;;;;5033485;28;20052;-68
2022/04/04 01:09:18;;;;;;;11.57;8.80;;;1.20;99.90;;;;;;5037053;28;20120;-68
2022/04/04 01:12:02;;;;;;;13.93;8.77;;;1.30;99.90;;;;;;5035406;28;20041;-68
2022/04/04 01:14:28;;;;;;;10.30;8.05;;;1.20;99.90;;;;;;5035266;28;20139;-68
2022/04/04 01:16:54;;;;;;;17.17;9.52;;;1.10;99.90;;;;;;5035236;28;20497;-68
2022/04/04 01:19:20;;;;;;;11.52;8.90;;;1.10;99.90;;;;;;5034433;28;20044;-68
2022/04/04 01:21:46;;;;;;;15.18;9.43;;;1.00;99.90;;;;;;5035189;28;20113;-68
2022/04/04 01:24:18;;;;;;;15.20;11.02;;;0.90;99.90;;;;;;5035133;28;20040;-68
2022/04/04 01:26:52;;;;;;;25.00;15.25;;;0.90;99.90;;;;;;5035252;28;20048;-68
2022/04/04 01:29:20;;;;;;;21.20;12.90;;;0.90;99.90;;;;;;5035242;28;20041;-67
2022/04/04 01:31:46;;;;;;;14.13;9.60;;;0.90;99.90;;;;;;5035403;28;20069;-68
2022/04/04 01:34:12;;;;;;;10.07;7.75;;;0.80;99.90;;;;;;5034666;28;20049;-68
2022/04/04 01:36:38;;;;;;;12.27;8.60;;;0.80;99.90;;;;;;5034281;28;20041;-68
2022/04/04 01:39:04;;;;;;;12.68;9.07;;;0.80;99.90;;;;;;5034978;28;20049;-68
2022/04/04 01:41:30;;;;;;;11.63;7.75;;;0.80;99.90;;;;;;5034768;28;20457;-68
2022/04/04 01:43:56;;;;;;;10.85;7.88;;;0.80;99.90;;;;;;5034817;28;20042;-68
2022/04/04 01:46:25;;;;;;;12.30;8.35;;;0.80;99.90;;;;;;5034847;28;20493;-68
2022/04/04 01:48:52;;;;;;;12.10;8.32;;;0.80;99.90;;;;;;5042821;28;20033;-68
2022/04/04 01:51:18;;;;;;;11.63;8.57;;;0.80;99.90;;;;;;5054607;28;20095;-68
2022/04/04 01:53:45;;;;;;;12.80;9.43;;;0.80;99.90;;;;;;5054452;28;20163;-68
2022/04/04 01:56:11;;;;;;;13.13;8.95;;;0.80;99.90;;;;;;5054621;28;20044;-68
2022/04/04 01:58:38;;;;;;;10.70;8.00;;;0.80;99.90;;;;;;5054497;28;20044;-68
2022/04/04 02:01:18;;;;;;;14.75;8.80;;;0.80;99.90;;;;;;5054552;28;20131;-68
2022/04/04 02:03:47;;;;;;;12.40;8.15;;;0.90;99.90;;;;;;5054480;28;20037;-68
2022/04/04 02:06:14;;;;;;;12.70;7.80;;;0.90;99.90;;;;;;5054486;28;20044;-68
2022/04/04 02:08:41;;;;;;;11.55;8.55;;;0.90;99.90;;;;;;5047855;28;20091;-68
2022/04/04 02:11:07;;;;;;;11.55;8.43;;;0.90;99.90;;;;;;5034334;28;20508;-69
2022/04/04 02:13:33;;;;;;;13.25;8.38;;;0.80;99.90;;;;;;5034263;28;20136;-69
2022/04/04 02:16:03;;;;;;;10.00;8.50;;;0.80;99.90;;;;;;5034112;28;20033;-69
2022/04/04 02:18:31;;;;;;;9.80;7.63;;;0.80;99.90;;;;;;5034307;28;20045;-69
2022/04/04 02:20:57;;;;;;;11.63;8.55;;;0.80;99.90;;;;;;5034223;28;20444;-68
2022/04/04 02:23:23;;;;;;;13.50;8.60;;;0.90;99.90;;;;;;5034148;28;20276;-68
2022/04/04 02:25:51;;;;;;;11.68;8.52;;;0.90;99.90;;;;;;5034217;28;20052;-69
2022/04/04 02:28:17;;;;;;;11.40;8.15;;;0.90;99.90;;;;;;5033962;28;20099;-69
2022/04/04 02:30:45;;;;;;;11.82;7.53;;;1.00;99.90;;;;;;5033908;28;20571;-69
2022/04/04 02:33:15;;;;;;;11.60;7.90;;;1.00;99.90;;;;;;5033559;28;20042;-69
2022/04/04 02:35:41;;;;;;;10.67;7.93;;;1.00;99.90;;;;;;5033754;28;20496;-69
2022/04/04 02:38:07;;;;;;;12.15;8.73;;;0.90;99.90;;;;;;5033540;28;20037;-69
2022/04/04 02:40:34;;;;;;;11.23;7.88;;;0.90;99.90;;;;;;5033585;28;20574;-69
2022/04/04 02:43:00;;;;;;;13.75;8.25;;;0.90;99.90;;;;;;5030645;28;20673;-69
2022/04/04 02:45:26;;;;;;;12.70;8.60;;;0.90;99.90;;;;;;5033865;28;20071;-69
2022/04/04 02:47:52;;;;;;;10.43;7.75;;;0.80;99.90;;;;;;5041105;28;20037;-69
2022/04/04 02:50:18;;;;;;;14.40;9.10;;;0.70;99.90;;;;;;5033037;28;20148;-69
2022/04/04 02:52:44;;;;;;;11.73;8.63;;;0.70;99.90;;;;;;5033557;28;20560;-69
2022/04/04 02:57:55;;;;;;;11.93;9.05;;;0.70;99.90;;;;;;5033273;28;20072;-69
2022/04/04 03:00:24;;;;;;;11.30;8.32;;;0.60;99.90;;;;;;5033129;28;20536;-69
2022/04/04 03:02:51;;;;;;;12.57;8.75;;;0.70;99.90;;;;;;5033010;28;20051;-69
2022/04/04 03:05:17;;;;;;;15.95;9.45;;;0.70;99.90;;;;;;5035647;28;20069;-69
2022/04/04 03:07:43;;;;;;;14.02;8.73;;;0.70;99.90;;;;;;5033429;28;20068;-69
2022/04/04 03:10:09;;;;;;;12.07;7.95;;;0.60;99.90;;;;;;5033061;28;20033;-69
2022/04/04 03:12:46;;;;;;;10.90;7.90;;;0.40;99.90;;;;;;5033187;28;20382;-69
2022/04/04 03:15:15;;;;;;;13.10;8.40;;;0.30;99.90;;;;;;5033169;28;20042;-69
2022/04/04 03:17:45;;;;;;;11.75;8.15;;;0.30;99.90;;;;;;5033538;28;20029;-69
2022/04/04 03:20:14;;;;;;;11.70;8.67;;;0.30;99.90;;;;;;5033183;28;20033;-69
2022/04/04 03:22:43;;;;;;;13.23;8.50;;;0.20;99.90;;;;;;5032838;28;20045;-69
2022/04/04 03:25:11;;;;;;;14.57;8.35;;;0.20;99.90;;;;;;5032791;28;20614;-69
2022/04/04 03:27:38;;;;;;;12.45;8.50;;;0.10;99.90;;;;;;5033017;28;20056;-69
2022/04/04 03:30:13;;;;;;;11.50;8.23;;;0.10;99.90;;;;;;5033023;28;20107;-69
2022/04/04 03:32:39;;;;;;;13.07;8.57;;;0.10;99.90;;;;;;5032722;28;20045;-69
2022/04/04 03:35:06;;;;;;;14.52;9.13;;;0.30;99.90;;;;;;5032634;28;20037;-69
2022/04/04 03:37:34;;;;;;;12.75;8.68;;;0.30;99.90;;;;;;5032924;28;20045;-69
2022/04/04 03:40:00;;;;;;;12.63;9.23;;;0.20;99.90;;;;;;5033887;28;20516;-69
2022/04/04 03:42:26;;;;;;;12.20;8.55;;;0.30;99.90;;;;;;5051938;28;20085;-69
2022/04/04 03:44:51;;;;;;;11.43;8.63;;;0.30;99.90;;;;;;5052761;28;20058;-69
2022/04/04 03:47:18;;;;;;;10.25;7.72;;;0.30;99.90;;;;;;5052554;28;20522;-68
2022/04/04 03:49:43;;;;;;;11.70;8.10;;;0.20;99.90;;;;;;5052433;28;20516;-69
2022/04/04 03:52:10;;;;;;;14.80;9.23;;;0.20;99.90;;;;;;5052491;28;20146;-69
2022/04/04 03:54:36;;;;;;;11.23;7.82;;;0.10;99.90;;;;;;5052517;28;20410;-68
2022/04/04 03:57:02;;;;;;;13.55;8.73;;;0.00;99.90;;;;;;5052274;28;20045;-69
2022/04/04 03:59:28;;;;;;;12.52;8.02;;;-0.10;99.90;;;;;;5052693;28;20099;-69
2022/04/04 04:01:54;;;;;;;11.77;7.95;;;0.00;99.90;;;;;;5056637;28;20512;-69
2022/04/04 04:04:20;;;;;;;11.05;8.30;;;0.00;99.90;;;;;;5056347;28;20134;-69
2022/04/04 04:06:46;;;;;;;10.63;8.18;;;-0.10;99.90;;;;;;5056638;28;20382;-69
2022/04/04 04:09:12;;;;;;;12.23;8.18;;;-0.10;99.90;;;;;;5056532;28;20512;-68
2022/04/04 04:11:38;;;;;;;12.23;8.68;;;-0.20;99.90;;;;;;5056233;28;20044;-69
2022/04/04 04:14:05;;;;;;;11.68;8.38;;;-0.10;99.90;;;;;;5040170;28;20053;-69
2022/04/04 04:16:31;;;;;;;11.20;8.13;;;0.00;99.90;;;;;;5036326;28;20037;-68
2022/04/04 04:18:57;;;;;;;11.30;8.25;;;0.10;99.90;;;;;;5016518;28;20100;-69
2022/04/04 04:21:23;;;;;;;10.18;7.78;;;0.10;99.90;;;;;;5016525;28;20042;-69
2022/04/04 04:23:50;;;;;;;12.13;7.93;;;0.00;99.90;;;;;;5016584;28;20099;-69
2022/04/04 04:26:16;;;;;;;11.88;8.80;;;-0.10;99.90;;;;;;5016503;28;20041;-69
2022/04/04 04:28:44;;;;;;;12.45;8.65;;;-0.10;99.90;;;;;;5016511;28;20498;-69
2022/04/04 04:31:10;;;;;;;11.15;8.38;;;0.00;99.90;;;;;;5016441;28;20029;-69
2022/04/04 04:33:36;;;;;;;12.15;8.80;;;-0.10;99.90;;;;;;5016271;28;20046;-69
2022/04/04 04:36:02;;;;;;;14.48;8.32;;;-0.20;99.90;;;;;;5016187;28;20029;-69
2022/04/04 04:38:30;;;;;;;12.65;8.43;;;0.00;99.90;;;;;;5016037;28;20037;-69
2022/04/04 04:40:56;;;;;;;11.77;8.85;;;-0.20;99.90;;;;;;5015920;28;20045;-68
2022/04/04 04:43:22;;;;;;;17.92;10.32;;;-0.20;99.90;;;;;;5016198;28;20041;-69
2022/04/04 04:45:48;;;;;;;12.55;9.40;;;-0.10;99.90;;;;;;5015992;28;20041;-69
2022/04/04 04:48:14;;;;;;;11.30;8.30;;;-0.10;99.90;;;;;;5015899;28;20038;-69
2022/04/04 04:50:40;;;;;;;11.40;8.65;;;-0.30;99.90;;;;;;5015866;28;20429;-69
2022/04/04 04:53:06;;;;;;;11.10;8.57;;;-0.20;99.90;;;;;;5015748;28;20042;-69
2022/04/04 04:55:32;;;;;;;13.43;8.82;;;-0.10;99.90;;;;;;5015796;28;20056;-69
2022/04/04 04:57:59;;;;;;;14.07;8.90;;;-0.10;99.90;;;;;;5015626;28;20057;-69
2022/04/04 05:00:28;;;;;;;12.77;8.75;;;-0.20;99.90;;;;;;5015715;28;20046;-69
2022/04/04 05:05:40;;;;;;;13.35;9.27;;;-0.10;99.90;;;;;;5015900;28;20160;-68
2022/04/04 05:08:07;;;;;;;12.02;9.18;;;-0.20;99.90;;;;;;5029355;28;20045;-69
2022/04/04 05:10:33;;;;;;;12.32;8.68;;;-0.20;99.90;;;;;;5033402;28;20095;-68
2022/04/04 05:12:58;;;;;;;17.35;8.20;;;-0.10;99.90;;;;;;5033778;28;20041;-69
2022/04/04 05:15:24;;;;;;;11.05;8.65;;;-0.10;99.90;;;;;;5035020;28;20052;-69
2022/04/04 05:17:52;;;;;;;11.75;8.90;;;-0.20;99.90;;;;;;5035285;28;20400;-68
2022/04/04 05:20:18;;;;;;;13.32;8.77;;;-0.20;99.90;;;;;;5035402;28;20095;-69
2022/04/04 05:22:44;;;;;;;11.30;8.32;;;-0.30;99.90;;;;;;5035260;28;20485;-69
2022/04/04 05:25:11;;;;;;;11.20;8.52;;;-0.40;99.90;;;;;;5035048;28;20120;-69
2022/04/04 05:27:43;;;;;;;12.13;8.85;;;-0.50;99.90;;;;;;5041057;28;20535;-68
2022/04/04 05:30:10;;;;;;;13.70;9.25;;;-0.30;99.90;;;;;;5054109;28;20053;-68
2022/04/04 05:32:36;;;;;;;16.15;9.35;;;-0.30;99.90;;;;;;5054296;28;20032;-68
2022/04/04 05:35:08;;;;;;;12.63;8.30;;;-0.40;99.90;;;;;;5055204;28;20405;-69
2022/04/04 05:37:34;;;;;;;11.50;8.05;;;-0.40;99.90;;;;;;5053759;28;20043;-69
2022/04/04 05:40:01;;;;;;;15.10;9.90;;;-0.40;99.90;;;;;;5055003;28;20405;-69
2022/04/04 05:42:28;;;;;;;12.27;9.65;;;-0.40;99.90;;;;;;5055181;28;20036;-69
2022/04/04 05:44:54;;;;;;;12.65;10.88;;;-0.50;99.90;;;;;;5055129;28;20063;-70
2022/04/04 05:47:20;;;;;;;16.38;13.93;;;-0.40;99.90;;;;;;5055118;28;20493;-69
2022/04/04 05:49:48;;;;;;;12.57;11.27;;;-0.30;99.90;;;;;;5054993;28;20048;-69
2022/04/04 05:52:15;;;;;;;12.02;10.48;;;-0.30;99.90;;;;;;5037189;28;20401;-69
2022/04/04 05:54:54;;;;;;;14.27;9.55;;;-0.30;99.90;;;;;;5051266;28;20045;-69
2022/04/04 05:57:29;;;;;;;11.13;8.32;;;-0.40;99.90;;;;;;5036628;28;20513;-69
2022/04/04 05:59:55;;;;;;;11.13;7.90;;;-0.20;99.90;;;;;;5034178;28;20042;-68
2022/04/04 06:02:27;;;;;;;9.75;8.05;;;-0.10;99.90;;;;;;5033882;28;20513;-68
2022/04/04 06:04:53;;;;;;;9.80;7.70;;;0.00;99.90;;;;;;5034678;28;20044;-68
2022/04/04 06:07:19;;;;;;;10.23;7.13;;;0.20;99.90;;;;;;5034684;28;20051;-68
2022/04/04 06:09:45;;;;;;;9.05;7.50;;;0.50;99.90;;;;;;5034606;28;20068;-69
2022/04/04 06:12:11;;;;;;;11.55;7.82;;;0.80;99.90;;;;;;5034728;28;20135;-69
2022/04/04 06:14:37;;;;;;;11.75;8.30;;;0.90;99.90;;;;;;5034235;28;20052;-69
2022/04/04 06:17:07;;;;;;;10.80;8.60;;;1.10;99.90;;;;;;5034240;28;20033;-69
2022/04/04 06:19:34;;;;;;;11.70;7.60;;;1.20;99.90;;;;;;5034127;28;20049;-68
2022/04/04 06:22:01;;;;;;;11.57;8.32;;;1.20;99.90;;;;;;5033885;28;20045;-69
2022/04/04 06:24:27;;;;;;;12.43;8.02;;;1.20;99.90;;;;;;5033215;28;20417;-72
2022/04/04 06:26:53;;;;;;;11.32;8.63;;;1.30;99.90;;;;;;5034275;28;20136;-70
2022/04/04 06:29:19;;;;;;;12.05;7.07;;;1.80;99.90;;;;;;5034515;28;20237;-73
2022/04/04 06:31:46;;;;;;;10.00;7.43;;;1.90;99.90;;;;;;5034469;28;20044;-72
2022/04/04 06:34:12;;;;;;;12.15;7.75;;;1.90;99.90;;;;;;5033738;28;20057;-69
2022/04/04 06:36:38;;;;;;;12.00;7.45;;;1.80;99.90;;;;;;5033877;28;20036;-72
2022/04/04 06:39:05;;;;;;;9.80;7.20;;;1.90;99.90;;;;;;5034127;28;20042;-72
2022/04/04 06:41:31;;;;;;;12.57;7.32;;;1.90;99.90;;;;;;5034453;28;20037;-75
2022/04/04 06:43:58;;;;;;;12.00;8.35;;;2.50;99.90;;;;;;5033781;28;20103;-74
2022/04/04 06:46:25;;;;;;;7.93;6.68;;;3.00;99.90;;;;;;5034053;28;20508;-68
2022/04/04 06:48:51;;;;;;;12.13;8.38;;;2.90;99.90;;;;;;5033724;28;20041;-73
2022/04/04 06:51:18;;;;;;;16.35;11.38;;;3.10;99.90;;;;;;5033922;28;20095;-73
2022/04/04 06:53:45;;;;;;;13.18;10.82;;;3.50;99.90;;;;;;5033990;28;20056;-73
2022/04/04 06:56:11;;;;;;;14.00;10.63;;;3.70;99.90;;;;;;5032347;28;20064;-70
2022/04/04 06:58:37;;;;;;;10.18;7.85;;;4.00;99.90;;;;;;5031240;28;20124;-73
2022/04/04 07:01:03;;;;;;;10.93;7.15;;;3.80;99.90;;;;;;5030301;28;20204;-73
2022/04/04 07:03:28;;;;;;;13.52;8.52;;;4.10;99.90;;;;;;5031009;28;20033;-72
2022/04/04 07:05:54;;;;;;;13.18;7.88;;;4.10;99.90;;;;;;5031438;28;20436;-69
2022/04/04 07:08:21;;;;;;;10.75;7.43;;;4.30;99.90;;;;;;5030815;28;20432;-72
2022/04/04 07:10:48;;;;;;;7.85;6.43;;;4.60;99.90;;;;;;5031059;28;20405;-73
2022/04/04 07:13:15;;;;;;;8.43;6.20;;;4.80;99.90;;;;;;5030659;28;20053;-69
2022/04/04 07:15:41;;;;;;;11.95;6.85;;;5.00;99.90;;;;;;5030665;28;20049;-72
2022/04/04 07:18:08;;;;;;;13.30;7.78;;;5.40;99.90;;;;;;5030281;28;20029;-72
2022/04/04 07:20:34;;;;;;;9.38;7.15;;;5.30;99.90;;;;;;5030642;28;20033;-72
2022/04/04 07:23:00;;;;;;;9.27;6.82;;;5.30;99.90;;;;;;5029718;28;20037;-71
2022/04/04 07:25:28;;;;;;;7.82;6.30;;;5.30;99.90;;;;;;5031253;28;20045;-72
2022/04/04 07:27:54;;;;;;;10.60;6.05;;;4.50;99.90;;;;;;5031127;28;20047;-70
2022/04/04 07:30:20;;;;;;;11.15;6.65;;;;;;;;;;5037947;28;20486;-72
2022/04/04 07:32:50;;;;;;;9.45;6.82;;;5.20;99.90;;;;;;5050100;28;20849;-71
2022/04/04 07:35:17;;;;;;;12.15;6.75;;;5.20;99.90;;;;;;5050047;28;20079;-71
2022/04/04 07:37:45;;;;;;;10.45;6.95;;;5.80;99.90;;;;;;5042840;28;20045;-69
2022/04/04 07:40:13;;;;;;;8.90;6.90;;;5.70;99.90;;;;;;5029293;28;20046;-71
2022/04/04 07:42:40;;;;;;;10.13;7.10;;;5.70;99.90;;;;;;5011714;28;20390;-72
2022/04/04 07:45:08;;;;;;;10.13;6.90;;;5.30;99.70;;;;;;5030122;28;20478;-72
2022/04/04 07:47:34;;;;;;;8.88;6.22;;;5.30;99.90;;;;;;5030627;28;20049;-71
2022/04/04 07:50:00;;;;;;;8.82;6.15;;;5.00;99.00;;;;;;5030622;28;20053;-70
2022/04/04 07:52:27;;;;;;;7.72;5.97;;;4.60;98.70;;;;;;5031035;28;20401;-71
2022/04/04 07:54:54;;;;;;;11.93;6.72;;;5.30;98.70;;;;;;5030482;28;20456;-71
2022/04/04 07:57:20;;;;;;;11.00;6.55;;;5.50;98.80;;;;;;5030893;28;20401;-72
2022/04/04 07:59:46;;;;;;;12.15;7.32;;;5.90;99.90;;;;;;5030832;28;20057;-71
2022/04/04 08:02:12;;;;;;;14.50;7.95;;;5.70;99.90;;;;;;5030703;28;20522;-73
2022/04/04 08:04:38;;;;;;;13.60;8.05;;;6.40;99.60;;;;;;5030833;28;20050;-72
2022/04/04 08:07:05;;;;;;;12.10;8.73;;;6.40;99.00;;;;;;5030384;28;20116;-72
2022/04/04 08:09:31;;;;;;;15.43;8.55;;;6.30;99.40;;;;;;5030809;28;20049;-73
2022/04/04 08:11:57;;;;;;;13.75;8.73;;;6.10;98.60;;;;;;5031991;28;20040;-72
2022/04/04 08:14:23;;;;;;;14.48;8.93;;;6.20;97.50;;;;;;5030248;28;20084;-73
2022/04/04 08:16:50;;;;;;;13.55;8.55;;;6.30;99.40;;;;;;5030994;28;20041;-72
2022/04/04 08:19:16;;;;;;;16.70;9.02;;;6.40;98.70;;;;;;5032927;28;20476;-72
2022/04/04 08:21:44;;;;;;;16.90;9.82;;;6.40;99.70;;;;;;5032531;28;20041;-73
2022/04/04 08:24:10;;;;;;;13.65;9.00;;;6.20;98.30;;;;;;5030924;28;20049;-72
2022/04/04 08:26:37;;;;;;;11.43;8.10;;;5.90;97.60;;;;;;5030653;28;20735;-72
2022/04/04 08:29:11;;;;;;;12.65;8.55;;;;;;;;;;5030347;28;20093;-69
2022/04/04 08:31:39;;;;;;;11.48;6.50;;;5.40;98.70;;;;;;5030699;28;20053;-69
2022/04/04 08:34:05;;;;;;;10.05;7.18;;;5.80;99.90;;;;;;5030170;28;20060;-69
2022/04/04 08:36:31;;;;;;;8.57;5.65;;;5.40;98.30;;;;;;5031587;28;20105;-69
2022/04/04 08:38:57;;;;;;;12.18;9.32;;;4.80;99.30;;;;;;5032479;28;20077;-69
2022/04/04 08:41:24;;;;;;;8.98;6.25;;;5.50;99.90;;;;;;5032356;28;20127;-69
2022/04/04 08:43:51;;;;;;;9.57;7.47;;;5.40;99.90;;;;;;5030581;28;20045;-69
2022/04/04 08:46:17;;;;;;;10.02;6.07;;;5.10;99.90;;;;;;5032722;28;20116;-69
2022/04/04 08:48:43;;;;;;;8.40;5.85;;;5.10;99.90;;;;;;5035261;28;20075;-68
2022/04/04 08:51:10;;;;;;;10.73;6.63;;;5.10;99.90;;;;;;5034207;28;20033;-69
2022/04/04 08:53:38;;;;;;;10.55;6.72;;;5.00;99.90;;;;;;5034381;28;20079;-68
2022/04/04 08:56:05;;;;;;;10.25;6.10;;;5.00;99.90;;;;;;5034055;28;20500;-68
2022/04/04 08:58:33;;;;;;;10.20;6.93;;;5.00;99.90;;;;;;5034276;28;20041;-68
2022/04/04 09:00:59;;;;;;;10.98;6.50;;;4.80;99.90;;;;;;5033893;28;20045;-68
2022/04/04 09:03:29;;;;;;;9.40;6.13;;;4.90;99.90;;;;;;5034440;28;20041;-69
2022/04/04 09:06:03;;;;;;;8.18;6.25;;;5.00;99.90;;;;;;5034494;28;20041;-68
2022/04/04 09:08:30;;;;;;;9.20;6.40;;;5.10;99.90;;;;;;5033603;28;20040;-69
2022/04/04 09:11:00;;;;;;;13.63;9.27;;;5.00;99.90;;;;;;5031914;28;20555;-69
2022/04/04 09:13:28;;;;;;;9.15;7.00;;;4.90;99.40;;;;;;5033630;28;20050;-68
2022/04/04 09:16:05;;;;;;;17.45;11.95;;;4.80;99.90;;;;;;5034704;28;20045;-68
2022/04/04 09:18:37;;;;;;;10.75;6.30;;;4.90;99.90;;;;;;5033661;28;20041;-68
2022/04/04 09:21:07;;;;;;;11.15;7.63;;;5.10;99.90;;;;;;5032396;28;20462;-67
2022/04/04 09:24:09;;;;;;;9.88;7.45;;;5.20;99.90;;;;;;5033476;28;20498;-68
2022/04/04 09:26:37;;;;;;;10.40;7.35;;;5.30;99.90;;;;;;5031950;28;20047;-68
2022/04/04 09:29:06;;;;;;;13.23;9.35;;;5.20;99.90;;;;;;5033279;28;20128;-68
2022/04/04 09:31:33;;;;;;;9.65;7.13;;;5.20;99.90;;;;;;5013588;28;20054;-68
2022/04/04 09:34:04;;;;;;;8.93;6.65;;;5.10;99.00;;;;;;5030906;28;20551;-68
2022/04/04 09:36:31;;;;;;;10.40;6.93;;;5.10;99.90;;;;;;5032694;28;20037;-68
2022/04/04 09:39:08;;;;;;;11.18;7.40;;;5.10;98.90;;;;;;5032210;28;20042;-68
2022/04/04 09:41:34;;;;;;;11.02;7.53;;;5.20;98.80;;;;;;5032995;28;20092;-66
2022/04/04 09:44:02;;;;;;;9.27;6.90;;;5.40;99.90;;;;;;5033378;28;20045;-68
2022/04/04 09:46:39;;;;;;;13.00;8.60;;;5.40;99.00;;;;;;5034245;28;20050;-66
2022/04/04 09:49:16;;;;;;;11.77;8.35;;;5.20;98.70;;;;;;5042532;28;20049;-67
2022/04/04 09:51:46;;;;;;;13.48;8.98;;;5.10;98.30;;;;;;5052870;28;20041;-67
2022/04/04 09:54:17;;;;;;;12.48;8.23;;;5.40;99.00;;;;;;5052327;28;20135;-68
2022/04/04 09:56:44;;;;;;;13.15;8.95;;;5.30;98.60;;;;;;5052220;28;20044;-68
2022/04/04 09:59:12;;;;;;;10.10;7.97;;;5.70;98.70;;;;;;5044569;28;20049;-68
2022/04/04 10:01:39;;;;;;;10.77;8.50;;;6.30;98.80;;;;;;5032839;28;20489;-68
2022/04/04 10:04:09;;;;;;;13.15;8.73;;;6.90;99.30;;;;;;5031715;28;20041;-69
2022/04/04 10:06:37;;;;;;;11.67;8.20;;;7.10;99.70;;;;;;5032440;28;20045;-68
2022/04/04 10:09:03;;;;;;;11.82;7.90;;;6.80;97.40;;;;;;5032500;28;20041;-68
2022/04/04 10:12:00;;;;;;;10.55;7.30;;;6.80;96.70;;;;;;5032424;28;20560;-68
2022/04/04 10:14:26;;;;;;;11.88;8.48;;;6.70;96.60;;;;;;5032701;28;20059;-68
2022/04/04 10:16:53;;;;;;;11.50;8.20;;;6.80;97.80;;;;;;5032576;28;20072;-67
2022/04/04 10:19:20;;;;;;;11.05;7.63;;;7.50;98.70;;;;;;5031947;28;20046;-67
2022/04/04 10:21:46;;;;;;;12.30;6.88;;;7.70;97.10;;;;;;5032741;28;20077;-67
2022/04/04 10:24:13;;;;;;;12.10;7.32;;;7.70;96.30;;;;;;5033133;28;20052;-68
2022/04/04 10:26:40;;;;;;;10.52;7.57;;;7.90;95.10;;;;;;5032502;28;20048;-68
2022/04/04 10:29:14;;;;;;;13.45;8.40;;;7.50;96.60;;;;;;5032218;28;20037;-68
2022/04/04 10:31:50;;;;;;;12.10;7.40;;;7.50;95.60;;;;;;5033844;28;20041;-68
2022/04/04 10:34:19;;;;;;;8.93;6.85;;;7.00;96.90;;;;;;5031819;28;20081;-68
2022/04/04 10:37:02;;;;;;;13.40;8.68;;;6.90;97.40;;;;;;5032162;28;20046;-68
2022/04/04 10:39:47;;;;;;;10.20;7.40;;;7.20;96.90;;;;;;5033236;28;20122;-67
2022/04/04 10:42:25;;;;;;;10.60;7.22;;;7.10;96.10;;;;;;5031418;28;20036;-68
2022/04/04 10:45:11;;;;;;;10.45;7.38;;;7.40;97.60;;;;;;5032000;28;20079;-68
2022/04/04 10:47:43;;;;;;;9.07;7.45;;;7.30;96.00;;;;;;5031895;28;20045;-68
2022/04/04 10:50:29;;;;;;;11.40;6.88;;;7.60;97.30;;;;;;5031540;28;20065;-68
2022/04/04 10:52:59;;;;;;;10.32;6.65;;;7.80;96.50;;;;;;5032045;28;20037;-68
2022/04/04 10:55:34;;;;;;;7.32;5.82;;;7.70;97.10;;;;;;5031767;28;20045;-68
2022/04/04 10:58:20;;;;;;;10.52;6.47;;;7.60;95.80;;;;;;5031354;28;20037;-67
2022/04/04 11:01:11;;;;;;;11.48;8.32;;;8.40;96.10;;;;;;5032830;28;20128;-67
2022/04/04 11:03:39;;;;;;;12.65;8.18;;;9.00;96.10;;;;;;5032428;28;20081;-68
2022/04/04 11:09:26;;;;;;;9.85;7.95;;;8.30;97.70;;;;;;5030775;28;20049;-68
2022/04/04 11:12:09;;;;;;;8.73;6.45;;;9.10;99.30;;;;;;5030190;28;20152;-68
2022/04/04 11:14:38;;;;;;;8.38;6.30;;;9.30;96.60;;;;;;5031028;28;20085;-68
2022/04/04 11:17:07;;;;;;;9.57;7.00;;;9.30;95.00;;;;;;5030879;28;20070;-67
2022/04/04 11:20:00;;;;;;;10.35;7.13;;;8.80;94.30;;;;;;5030924;28;20509;-67
2022/04/04 11:22:32;;;;;;;10.15;7.50;;;8.50;94.00;;;;;;5031214;28;20106;-68
2022/04/04 11:25:05;;;;;;;11.25;7.25;;;8.70;94.90;;;;;;5031567;28;20045;-68
2022/04/04 11:27:39;;;;;;;10.00;7.00;;;8.90;96.00;;;;;;5033963;28;20033;-68
2022/04/04 11:30:08;;;;;;;13.50;10.20;;;8.80;94.60;;;;;;5030579;28;20094;-67
2022/04/04 11:32:38;;;;;;;8.80;7.00;;;9.10;95.70;;;;;;5031009;28;20094;-66
2022/04/04 11:35:09;;;;;;;10.60;7.00;;;9.50;96.40;;;;;;5030586;28;20128;-67
2022/04/04 11:37:46;;;;;;;10.23;6.85;;;9.80;99.40;;;;;;5030254;28;20049;-68
2022/04/04 11:40:14;;;;;;;9.82;6.80;;;9.60;93.70;;;;;;5030876;28;20671;-68
2022/04/04 11:42:51;;;;;;;8.48;5.97;;;9.30;96.40;;;;;;5035261;28;20037;-68
2022/04/04 11:45:20;;;;;;;10.32;6.35;;;9.60;96.70;;;;;;5050677;28;20120;-68
2022/04/04 11:47:51;;;;;;;8.63;5.90;;;9.60;93.50;;;;;;5051960;28;20098;-68
2022/04/04 11:50:17;;;;;;;;;;;8.30;93.90;;;;;;5047434;28;20041;-68
2022/04/04 11:52:53;;;;;;;9.18;6.40;;;9.00;95.70;;;;;;5032893;28;19913;-68
2022/04/04 11:55:20;;;;;;;9.90;5.68;;;9.80;98.10;;;;;;5033084;28;20103;-67
2022/04/04 11:57:49;;;;;;;11.88;8.60;;;9.80;94.80;;;;;;5033330;28;20025;-69
2022/04/04 12:00:37;;;;;;;13.23;10.25;;;10.00;96.20;;;;;;5031629;28;20041;-69
2022/04/04 12:03:11;;;;;;;27.25;19.55;;;9.70;96.40;;;;;;5029791;28;20041;-70
2022/04/04 12:05:42;;;;;;;33.95;24.30;;;9.20;95.20;;;;;;5032062;28;20041;-69
2022/04/04 12:08:09;;;;;;;10.20;7.57;;;9.40;95.80;;;;;;5032854;28;20575;-69
2022/04/04 12:10:37;;;;;;;9.98;7.30;;;9.00;97.10;;;;;;5032997;28;20043;-69
2022/04/04 12:13:11;;;;;;;16.50;11.82;;;8.60;93.60;;;;;;5031724;28;20033;-69
2022/04/04 12:15:45;;;;;;;10.13;6.65;;;8.90;95.10;;;;;;5032874;28;20124;-68
2022/04/04 12:18:28;;;;;;;9.95;6.95;;;8.70;98.20;;;;;;5032505;28;20068;-69
2022/04/04 12:20:57;;;;;;;12.18;7.30;;;9.00;95.60;;;;;;5033920;28;20053;-69
2022/04/04 12:26:12;;;;;;;9.73;6.80;;;9.90;98.00;;;;;;5037075;28;20404;-69
2022/04/04 12:28:48;;;;;;;9.60;6.78;;;10.00;98.60;;;;;;5036805;28;20065;-69
2022/04/04 12:31:18;;;;;;;11.50;6.43;;;10.00;95.90;;;;;;5036754;28;20099;-68
2022/04/04 12:33:45;;;;;;;9.68;7.53;;;9.60;94.20;;;;;;5018505;28;20442;-67
2022/04/04 12:36:12;;;;;;;10.07;6.80;;;9.60;96.90;;;;;;5036283;28;20053;-69
2022/04/04 12:38:40;;;;;;;8.95;7.15;;;9.20;95.10;;;;;;5036494;28;20578;-68
2022/04/04 12:41:12;;;;;;;10.13;6.65;;;9.70;97.30;;;;;;5036522;28;20053;-68
2022/04/04 12:43:43;;;;;;;8.25;6.47;;;10.20;96.60;;;;;;5036404;28;20033;-69
2022/04/04 12:46:25;;;;;;;10.82;6.93;;;10.10;96.80;;;;;;5036269;28;20041;-69
2022/04/04 12:48:51;;;;;;;10.38;6.38;;;9.50;93.70;;;;;;5040863;28;20040;-68
2022/04/04 12:51:30;;;;;;;8.90;6.45;;;9.20;94.10;;;;;;5053795;28;20431;-68
2022/04/04 12:54:00;;;;;;;8.05;6.05;;;9.80;97.00;;;;;;5049481;28;20065;-68
2022/04/04 12:56:31;;;;;;;8.43;6.43;;;10.60;98.70;;;;;;5036081;28;20041;-68
2022/04/04 12:59:09;;;;;;;7.35;6.18;;;10.30;94.70;;;;;;5018141;28;20041;-68
2022/04/04 13:01:36;;;;;;;9.48;5.97;;;9.30;94.60;;;;;;5036250;28;20040;-68
2022/04/04 13:04:07;;;;;;;8.57;6.30;;;9.40;95.70;;;;;;5035980;28;20045;-67
2022/04/04 13:06:33;;;;;;;9.32;6.70;;;9.00;94.00;;;;;;5035987;28;20044;-68